sensor_id;sensor_type;location;lat;lon;timestamp;temperature;humidity
3602;DHT22;1815;50.950;6.920;2022-10-16T00:00:37;17.20;99.90
3602;DHT22;1815;50.950;6.920;2022-10-16T00:03:04;17.20;99.90
3602;DHT22;1815;50.950;6.920;2022-10-16T00:05:30;17.20;99.90
3602;DHT22;1815;50.950;6.920;2022-10-16T00:07:56;17.20;99.90
3602;DHT22;1815;50.950;6.920;2022-10-16T00:10:22;17.20;99.90
3602;DHT22;1815;50.950;6.920;2022-10-16T00:12:48;17.20;99.90
3602;DHT22;1815;50.950;6.920;2022-10-16T00:15:15;17.20;99.90
3602;DHT22;1815;50.950;6.920;2022-10-16T00:17:41;17.20;99.90
3602;DHT22;1815;50.950;6.920;2022-10-16T00:20:07;17.10;99.90
3602;DHT22;1815;50.950;6.920;2022-10-16T00:22:33;17.20;99.90
3602;DHT22;1815;50.950;6.920;2022-10-16T00:24:59;17.10;99.90
3602;DHT22;1815;50.950;6.920;2022-10-16T00:27:24;17.10;99.90
3602;DHT22;1815;50.950;6.920;2022-10-16T00:29:51;17.10;99.90
3602;DHT22;1815;50.950;6.920;2022-10-16T00:32:18;17.10;99.90
3602;DHT22;1815;50.950;6.920;2022-10-16T00:34:44;17.10;99.90
3602;DHT22;1815;50.950;6.920;2022-10-16T00:37:11;17.00;99.90
3602;DHT22;1815;50.950;6.920;2022-10-16T00:39:37;17.00;99.90
3602;DHT22;1815;50.950;6.920;2022-10-16T00:42:02;17.00;99.90
3602;DHT22;1815;50.950;6.920;2022-10-16T00:47:35;17.00;99.90
3602;DHT22;1815;50.950;6.920;2022-10-16T00:50:14;16.90;99.90
3602;DHT22;1815;50.950;6.920;2022-10-16T00:52:44;16.90;99.90
3602;DHT22;1815;50.950;6.920;2022-10-16T00:55:11;16.80;99.90
3602;DHT22;1815;50.950;6.920;2022-10-16T00:57:37;16.80;99.90
3602;DHT22;1815;50.950;6.920;2022-10-16T01:00:06;16.80;99.90
3602;DHT22;1815;50.950;6.920;2022-10-16T01:02:33;16.80;99.90
3602;DHT22;1815;50.950;6.920;2022-10-16T01:04:59;16.80;99.90
3602;DHT22;1815;50.950;6.920;2022-10-16T01:07:54;16.80;99.90
3602;DHT22;1815;50.950;6.920;2022-10-16T01:10:35;16.70;99.90
3602;DHT22;1815;50.950;6.920;2022-10-16T01:13:16;16.70;99.90
3602;DHT22;1815;50.950;6.920;2022-10-16T01:19:13;16.60;99.90
3602;DHT22;1815;50.950;6.920;2022-10-16T01:21:42;16.70;99.90
3602;DHT22;1815;50.950;6.920;2022-10-16T01:24:33;16.60;99.90
3602;DHT22;1815;50.950;6.920;2022-10-16T01:27:13;16.60;99.90
3602;DHT22;1815;50.950;6.920;2022-10-16T01:30:04;16.70;99.90
3602;DHT22;1815;50.950;6.920;2022-10-16T01:35:40;16.70;99.90
3602;DHT22;1815;50.950;6.920;2022-10-16T01:40:46;16.60;99.90
3602;DHT22;1815;50.950;6.920;2022-10-16T01:43:15;16.60;99.90
3602;DHT22;1815;50.950;6.920;2022-10-16T01:45:43;16.60;99.90
3602;DHT22;1815;50.950;6.920;2022-10-16T01:48:12;16.60;99.90
3602;DHT22;1815;50.950;6.920;2022-10-16T01:50:41;16.60;99.90
3602;DHT22;1815;50.950;6.920;2022-10-16T01:53:10;16.60;99.90
3602;DHT22;1815;50.950;6.920;2022-10-16T01:55:41;16.60;99.90
3602;DHT22;1815;50.950;6.920;2022-10-16T01:58:12;16.60;99.90
3602;DHT22;1815;50.950;6.920;2022-10-16T02:00:41;16.60;99.90
3602;DHT22;1815;50.950;6.920;2022-10-16T02:03:09;16.50;99.90
3602;DHT22;1815;50.950;6.920;2022-10-16T02:05:44;16.60;99.90
3602;DHT22;1815;50.950;6.920;2022-10-16T02:08:10;16.60;99.90
3602;DHT22;1815;50.950;6.920;2022-10-16T02:10:37;16.60;99.90
3602;DHT22;1815;50.950;6.920;2022-10-16T02:13:07;16.60;99.90
3602;DHT22;1815;50.950;6.920;2022-10-16T02:15:35;16.60;99.90
3602;DHT22;1815;50.950;6.920;2022-10-16T02:18:02;16.70;99.90
3602;DHT22;1815;50.950;6.920;2022-10-16T02:20:34;16.70;99.90
3602;DHT22;1815;50.950;6.920;2022-10-16T02:23:01;16.70;99.90
3602;DHT22;1815;50.950;6.920;2022-10-16T02:25:34;16.70;99.90
3602;DHT22;1815;50.950;6.920;2022-10-16T02:28:13;16.80;99.90
3602;DHT22;1815;50.950;6.920;2022-10-16T02:30:50;16.80;99.90
3602;DHT22;1815;50.950;6.920;2022-10-16T02:33:17;16.80;99.90
3602;DHT22;1815;50.950;6.920;2022-10-16T02:35:46;16.80;99.90
3602;DHT22;1815;50.950;6.920;2022-10-16T02:38:14;16.80;99.90
3602;DHT22;1815;50.950;6.920;2022-10-16T02:40:41;16.90;99.90
3602;DHT22;1815;50.950;6.920;2022-10-16T02:43:08;16.90;99.90
3602;DHT22;1815;50.950;6.920;2022-10-16T02:45:35;16.90;99.90
3602;DHT22;1815;50.950;6.920;2022-10-16T02:48:00;16.90;99.90
3602;DHT22;1815;50.950;6.920;2022-10-16T02:50:26;17.00;99.90
3602;DHT22;1815;50.950;6.920;2022-10-16T02:52:52;17.00;99.90
3602;DHT22;1815;50.950;6.920;2022-10-16T02:55:18;17.00;99.90
3602;DHT22;1815;50.950;6.920;2022-10-16T02:57:44;17.00;99.90
3602;DHT22;1815;50.950;6.920;2022-10-16T03:00:13;17.00;99.90
3602;DHT22;1815;50.950;6.920;2022-10-16T03:02:39;17.00;99.90
3602;DHT22;1815;50.950;6.920;2022-10-16T03:05:05;17.10;99.90
3602;DHT22;1815;50.950;6.920;2022-10-16T03:07:31;17.00;99.90
3602;DHT22;1815;50.950;6.920;2022-10-16T03:09:57;17.00;99.90
3602;DHT22;1815;50.950;6.920;2022-10-16T03:12:26;17.00;99.90
3602;DHT22;1815;50.950;6.920;2022-10-16T03:14:52;17.00;99.90
3602;DHT22;1815;50.950;6.920;2022-10-16T03:17:18;17.00;99.90
3602;DHT22;1815;50.950;6.920;2022-10-16T03:19:44;16.90;99.90
3602;DHT22;1815;50.950;6.920;2022-10-16T03:22:10;16.90;99.90
3602;DHT22;1815;50.950;6.920;2022-10-16T03:24:35;16.90;99.90
3602;DHT22;1815;50.950;6.920;2022-10-16T03:27:01;16.90;99.90
3602;DHT22;1815;50.950;6.920;2022-10-16T03:29:27;16.80;99.90
3602;DHT22;1815;50.950;6.920;2022-10-16T03:31:55;16.80;99.90
3602;DHT22;1815;50.950;6.920;2022-10-16T03:34:21;16.80;99.90
3602;DHT22;1815;50.950;6.920;2022-10-16T03:36:47;16.80;99.90
3602;DHT22;1815;50.950;6.920;2022-10-16T03:39:12;16.80;99.90
3602;DHT22;1815;50.950;6.920;2022-10-16T03:41:38;16.80;99.90
3602;DHT22;1815;50.950;6.920;2022-10-16T03:44:04;16.80;99.90
3602;DHT22;1815;50.950;6.920;2022-10-16T03:46:29;16.70;99.90
3602;DHT22;1815;50.950;6.920;2022-10-16T03:48:55;16.80;99.90
3602;DHT22;1815;50.950;6.920;2022-10-16T03:51:21;16.80;99.90
3602;DHT22;1815;50.950;6.920;2022-10-16T03:53:47;16.80;99.90
3602;DHT22;1815;50.950;6.920;2022-10-16T03:56:13;16.80;99.90
3602;DHT22;1815;50.950;6.920;2022-10-16T03:58:39;16.80;99.90
3602;DHT22;1815;50.950;6.920;2022-10-16T04:01:05;16.80;99.90
3602;DHT22;1815;50.950;6.920;2022-10-16T04:03:30;16.80;99.90
3602;DHT22;1815;50.950;6.920;2022-10-16T04:05:56;16.80;99.90
3602;DHT22;1815;50.950;6.920;2022-10-16T04:08:22;16.90;99.90
3602;DHT22;1815;50.950;6.920;2022-10-16T04:10:48;16.90;99.90
3602;DHT22;1815;50.950;6.920;2022-10-16T04:13:14;16.90;99.90
3602;DHT22;1815;50.950;6.920;2022-10-16T04:15:40;16.90;99.90
3602;DHT22;1815;50.950;6.920;2022-10-16T04:18:06;16.90;99.90
3602;DHT22;1815;50.950;6.920;2022-10-16T04:20:32;16.90;99.90
3602;DHT22;1815;50.950;6.920;2022-10-16T04:22:58;16.90;99.90
3602;DHT22;1815;50.950;6.920;2022-10-16T04:25:24;16.90;99.90
3602;DHT22;1815;50.950;6.920;2022-10-16T04:27:49;16.90;99.90
3602;DHT22;1815;50.950;6.920;2022-10-16T04:30:15;16.90;99.90
3602;DHT22;1815;50.950;6.920;2022-10-16T04:32:41;16.90;99.90
3602;DHT22;1815;50.950;6.920;2022-10-16T04:35:07;16.90;99.90
3602;DHT22;1815;50.950;6.920;2022-10-16T04:37:33;16.90;99.90
3602;DHT22;1815;50.950;6.920;2022-10-16T04:39:59;16.90;99.90
3602;DHT22;1815;50.950;6.920;2022-10-16T04:42:25;16.90;99.90
3602;DHT22;1815;50.950;6.920;2022-10-16T04:44:50;16.90;99.90
3602;DHT22;1815;50.950;6.920;2022-10-16T04:47:16;16.90;99.90
3602;DHT22;1815;50.950;6.920;2022-10-16T04:49:42;16.90;99.90
3602;DHT22;1815;50.950;6.920;2022-10-16T04:52:07;16.80;99.90
3602;DHT22;1815;50.950;6.920;2022-10-16T04:54:35;16.80;99.90
3602;DHT22;1815;50.950;6.920;2022-10-16T04:57:00;16.80;99.90
3602;DHT22;1815;50.950;6.920;2022-10-16T04:59:26;16.80;99.90
3602;DHT22;1815;50.950;6.920;2022-10-16T05:01:52;16.80;99.90
3602;DHT22;1815;50.950;6.920;2022-10-16T05:04:17;16.80;99.90
3602;DHT22;1815;50.950;6.920;2022-10-16T05:06:43;16.80;99.90
3602;DHT22;1815;50.950;6.920;2022-10-16T05:09:09;16.80;99.90
3602;DHT22;1815;50.950;6.920;2022-10-16T05:11:35;16.90;99.90
3602;DHT22;1815;50.950;6.920;2022-10-16T05:14:01;16.90;99.90
3602;DHT22;1815;50.950;6.920;2022-10-16T05:16:27;16.80;99.90
3602;DHT22;1815;50.950;6.920;2022-10-16T05:18:53;16.80;99.90
3602;DHT22;1815;50.950;6.920;2022-10-16T05:21:19;16.80;99.90
3602;DHT22;1815;50.950;6.920;2022-10-16T05:23:45;16.90;99.90
3602;DHT22;1815;50.950;6.920;2022-10-16T05:26:11;16.90;99.90
3602;DHT22;1815;50.950;6.920;2022-10-16T05:28:36;16.90;99.90
3602;DHT22;1815;50.950;6.920;2022-10-16T05:31:06;16.90;99.90
3602;DHT22;1815;50.950;6.920;2022-10-16T05:33:32;16.90;99.90
3602;DHT22;1815;50.950;6.920;2022-10-16T05:36:02;16.90;99.90
3602;DHT22;1815;50.950;6.920;2022-10-16T05:38:28;16.90;99.90
3602;DHT22;1815;50.950;6.920;2022-10-16T05:40:54;16.80;99.90
3602;DHT22;1815;50.950;6.920;2022-10-16T05:43:20;16.90;99.90
3602;DHT22;1815;50.950;6.920;2022-10-16T05:46:00;16.80;99.90
3602;DHT22;1815;50.950;6.920;2022-10-16T05:48:27;16.80;99.90
3602;DHT22;1815;50.950;6.920;2022-10-16T05:51:00;16.80;99.90
3602;DHT22;1815;50.950;6.920;2022-10-16T05:53:31;16.80;99.90
3602;DHT22;1815;50.950;6.920;2022-10-16T05:55:58;16.70;99.90
3602;DHT22;1815;50.950;6.920;2022-10-16T05:58:24;16.70;99.90
3602;DHT22;1815;50.950;6.920;2022-10-16T06:01:02;16.70;99.90
3602;DHT22;1815;50.950;6.920;2022-10-16T06:03:28;16.60;99.90
3602;DHT22;1815;50.950;6.920;2022-10-16T06:05:54;16.60;99.90
3602;DHT22;1815;50.950;6.920;2022-10-16T06:08:21;16.60;99.90
3602;DHT22;1815;50.950;6.920;2022-10-16T06:10:48;16.60;99.90
3602;DHT22;1815;50.950;6.920;2022-10-16T06:13:15;16.60;99.90
3602;DHT22;1815;50.950;6.920;2022-10-16T06:15:42;16.50;99.90
3602;DHT22;1815;50.950;6.920;2022-10-16T06:18:08;16.50;99.90
3602;DHT22;1815;50.950;6.920;2022-10-16T06:20:35;16.60;99.90
3602;DHT22;1815;50.950;6.920;2022-10-16T06:23:01;16.60;99.90
3602;DHT22;1815;50.950;6.920;2022-10-16T06:25:27;16.60;99.90
3602;DHT22;1815;50.950;6.920;2022-10-16T06:27:53;16.50;99.90
3602;DHT22;1815;50.950;6.920;2022-10-16T06:30:18;16.60;99.90
3602;DHT22;1815;50.950;6.920;2022-10-16T06:32:44;16.60;99.90
3602;DHT22;1815;50.950;6.920;2022-10-16T06:35:10;16.60;99.90
3602;DHT22;1815;50.950;6.920;2022-10-16T06:37:36;16.60;99.90
3602;DHT22;1815;50.950;6.920;2022-10-16T06:40:01;16.70;99.90
3602;DHT22;1815;50.950;6.920;2022-10-16T06:42:30;16.80;99.90
3602;DHT22;1815;50.950;6.920;2022-10-16T06:44:56;16.80;99.90
3602;DHT22;1815;50.950;6.920;2022-10-16T06:47:22;16.90;99.90
3602;DHT22;1815;50.950;6.920;2022-10-16T06:49:47;16.90;99.90
3602;DHT22;1815;50.950;6.920;2022-10-16T06:52:13;17.00;99.90
3602;DHT22;1815;50.950;6.920;2022-10-16T06:54:39;17.10;99.90
3602;DHT22;1815;50.950;6.920;2022-10-16T06:57:04;17.20;99.90
3602;DHT22;1815;50.950;6.920;2022-10-16T06:59:30;17.30;99.90
3602;DHT22;1815;50.950;6.920;2022-10-16T07:01:56;17.40;99.90
3602;DHT22;1815;50.950;6.920;2022-10-16T07:04:22;17.50;99.90
3602;DHT22;1815;50.950;6.920;2022-10-16T07:06:48;17.60;99.90
3602;DHT22;1815;50.950;6.920;2022-10-16T07:09:13;17.60;99.90
3602;DHT22;1815;50.950;6.920;2022-10-16T07:11:40;17.70;99.90
3602;DHT22;1815;50.950;6.920;2022-10-16T07:14:17;17.80;99.90
3602;DHT22;1815;50.950;6.920;2022-10-16T07:16:43;17.90;99.90
3602;DHT22;1815;50.950;6.920;2022-10-16T07:19:09;18.00;99.90
3602;DHT22;1815;50.950;6.920;2022-10-16T07:21:37;18.10;99.90
3602;DHT22;1815;50.950;6.920;2022-10-16T07:24:10;18.20;99.90
3602;DHT22;1815;50.950;6.920;2022-10-16T07:26:37;18.30;99.90
3602;DHT22;1815;50.950;6.920;2022-10-16T07:29:16;18.30;99.90
3602;DHT22;1815;50.950;6.920;2022-10-16T07:31:43;18.40;99.90
3602;DHT22;1815;50.950;6.920;2022-10-16T07:34:10;18.50;99.90
3602;DHT22;1815;50.950;6.920;2022-10-16T07:36:36;18.60;99.90
3602;DHT22;1815;50.950;6.920;2022-10-16T07:39:03;18.80;99.90
3602;DHT22;1815;50.950;6.920;2022-10-16T07:41:29;18.90;99.90
3602;DHT22;1815;50.950;6.920;2022-10-16T07:43:55;19.00;99.90
3602;DHT22;1815;50.950;6.920;2022-10-16T07:46:26;19.10;99.90
3602;DHT22;1815;50.950;6.920;2022-10-16T07:48:52;19.20;99.90
3602;DHT22;1815;50.950;6.920;2022-10-16T07:51:20;19.20;99.90
3602;DHT22;1815;50.950;6.920;2022-10-16T07:53:47;19.30;99.90
3602;DHT22;1815;50.950;6.920;2022-10-16T07:56:13;19.40;99.90
3602;DHT22;1815;50.950;6.920;2022-10-16T07:58:40;19.50;99.90
3602;DHT22;1815;50.950;6.920;2022-10-16T08:01:08;19.50;99.90
3602;DHT22;1815;50.950;6.920;2022-10-16T08:03:34;19.50;99.90
3602;DHT22;1815;50.950;6.920;2022-10-16T08:06:01;19.50;99.90
3602;DHT22;1815;50.950;6.920;2022-10-16T08:08:28;19.60;99.90
3602;DHT22;1815;50.950;6.920;2022-10-16T08:10:54;19.80;99.90
3602;DHT22;1815;50.950;6.920;2022-10-16T08:13:19;20.20;99.90
3602;DHT22;1815;50.950;6.920;2022-10-16T08:15:46;21.00;99.90
3602;DHT22;1815;50.950;6.920;2022-10-16T08:18:13;21.80;99.90
3602;DHT22;1815;50.950;6.920;2022-10-16T08:20:39;22.70;99.90
3602;DHT22;1815;50.950;6.920;2022-10-16T08:23:06;23.80;99.90
3602;DHT22;1815;50.950;6.920;2022-10-16T08:25:35;24.90;99.90
3602;DHT22;1815;50.950;6.920;2022-10-16T08:28:05;26.10;99.90
3602;DHT22;1815;50.950;6.920;2022-10-16T08:30:31;27.40;99.90
3602;DHT22;1815;50.950;6.920;2022-10-16T08:32:57;28.50;99.90
3602;DHT22;1815;50.950;6.920;2022-10-16T08:35:23;29.60;99.90
3602;DHT22;1815;50.950;6.920;2022-10-16T08:37:50;30.60;99.90
3602;DHT22;1815;50.950;6.920;2022-10-16T08:40:22;31.40;99.90
3602;DHT22;1815;50.950;6.920;2022-10-16T08:42:53;32.10;99.90
3602;DHT22;1815;50.950;6.920;2022-10-16T08:50:43;33.90;99.90
3602;DHT22;1815;50.950;6.920;2022-10-16T08:53:35;34.20;99.90
3602;DHT22;1815;50.950;6.920;2022-10-16T08:56:02;34.50;99.90
3602;DHT22;1815;50.950;6.920;2022-10-16T08:58:29;34.60;98.90
3602;DHT22;1815;50.950;6.920;2022-10-16T09:00:58;34.90;97.70
3602;DHT22;1815;50.950;6.920;2022-10-16T09:09:05;36.00;94.10
3602;DHT22;1815;50.950;6.920;2022-10-16T09:12:12;36.20;91.90
3602;DHT22;1815;50.950;6.920;2022-10-16T09:17:44;37.00;90.00
3602;DHT22;1815;50.950;6.920;2022-10-16T09:20:38;37.20;86.00
3602;DHT22;1815;50.950;6.920;2022-10-16T09:23:18;37.50;86.90
3602;DHT22;1815;50.950;6.920;2022-10-16T09:25:47;37.80;81.40
3602;DHT22;1815;50.950;6.920;2022-10-16T09:28:14;38.00;79.40
3602;DHT22;1815;50.950;6.920;2022-10-16T09:30:40;38.10;76.70
3602;DHT22;1815;50.950;6.920;2022-10-16T09:33:06;38.10;72.40
3602;DHT22;1815;50.950;6.920;2022-10-16T09:35:44;38.00;70.70
3602;DHT22;1815;50.950;6.920;2022-10-16T09:38:30;38.10;68.60
3602;DHT22;1815;50.950;6.920;2022-10-16T09:40:58;38.10;67.70
3602;DHT22;1815;50.950;6.920;2022-10-16T09:43:35;37.60;64.40
3602;DHT22;1815;50.950;6.920;2022-10-16T09:46:26;37.00;62.50
3602;DHT22;1815;50.950;6.920;2022-10-16T09:49:36;36.60;62.30
3602;DHT22;1815;50.950;6.920;2022-10-16T09:51:42;36.40;62.80
3602;DHT22;1815;50.950;6.920;2022-10-16T09:56:35;36.40;63.50
3602;DHT22;1815;50.950;6.920;2022-10-16T09:59:13;36.50;62.60
3602;DHT22;1815;50.950;6.920;2022-10-16T10:01:41;36.40;61.40
3602;DHT22;1815;50.950;6.920;2022-10-16T10:04:09;36.30;60.80
3602;DHT22;1815;50.950;6.920;2022-10-16T10:06:40;36.30;60.90
3602;DHT22;1815;50.950;6.920;2022-10-16T10:09:47;36.20;60.00
3602;DHT22;1815;50.950;6.920;2022-10-16T10:12:23;36.10;60.30
3602;DHT22;1815;50.950;6.920;2022-10-16T10:14:51;35.90;58.80
3602;DHT22;1815;50.950;6.920;2022-10-16T10:17:26;35.70;58.80
3602;DHT22;1815;50.950;6.920;2022-10-16T10:19:53;35.40;58.20
3602;DHT22;1815;50.950;6.920;2022-10-16T10:30:49;34.90;58.80
3602;DHT22;1815;50.950;6.920;2022-10-16T10:36:33;34.60;57.00
3602;DHT22;1815;50.950;6.920;2022-10-16T10:39:04;34.20;56.80
3602;DHT22;1815;50.950;6.920;2022-10-16T10:42:19;33.70;56.50
3602;DHT22;1815;50.950;6.920;2022-10-16T10:44:26;33.10;56.10
3602;DHT22;1815;50.950;6.920;2022-10-16T10:49:57;32.00;56.60
3602;DHT22;1815;50.950;6.920;2022-10-16T10:57:59;31.10;58.30
3602;DHT22;1815;50.950;6.920;2022-10-16T11:03:41;30.80;58.80
3602;DHT22;1815;50.950;6.920;2022-10-16T11:06:26;30.60;58.80
3602;DHT22;1815;50.950;6.920;2022-10-16T11:08:59;30.60;58.80
3602;DHT22;1815;50.950;6.920;2022-10-16T11:11:38;30.50;59.00
3602;DHT22;1815;50.950;6.920;2022-10-16T11:14:21;30.50;59.10
3602;DHT22;1815;50.950;6.920;2022-10-16T11:16:52;30.50;59.30
3602;DHT22;1815;50.950;6.920;2022-10-16T11:19:32;30.50;58.90
3602;DHT22;1815;50.950;6.920;2022-10-16T11:24:42;30.50;58.90
3602;DHT22;1815;50.950;6.920;2022-10-16T11:27:15;30.70;59.60
3602;DHT22;1815;50.950;6.920;2022-10-16T11:29:51;30.90;59.90
3602;DHT22;1815;50.950;6.920;2022-10-16T11:32:28;31.10;59.90
3602;DHT22;1815;50.950;6.920;2022-10-16T11:34:59;31.30;59.00
3602;DHT22;1815;50.950;6.920;2022-10-16T11:37:33;31.40;58.90
3602;DHT22;1815;50.950;6.920;2022-10-16T11:42:49;31.40;57.50
3602;DHT22;1815;50.950;6.920;2022-10-16T11:45:51;31.40;57.60
3602;DHT22;1815;50.950;6.920;2022-10-16T11:48:25;31.30;57.90
3602;DHT22;1815;50.950;6.920;2022-10-16T11:50:54;31.20;57.40
3602;DHT22;1815;50.950;6.920;2022-10-16T11:53:51;31.20;57.50
3602;DHT22;1815;50.950;6.920;2022-10-16T11:56:20;31.00;57.00
3602;DHT22;1815;50.950;6.920;2022-10-16T12:01:38;30.60;56.90
3602;DHT22;1815;50.950;6.920;2022-10-16T12:09:28;29.90;56.20
3602;DHT22;1815;50.950;6.920;2022-10-16T12:11:55;29.50;56.30
3602;DHT22;1815;50.950;6.920;2022-10-16T12:19:32;28.70;56.90
3602;DHT22;1815;50.950;6.920;2022-10-16T12:22:00;28.50;57.20
3602;DHT22;1815;50.950;6.920;2022-10-16T12:24:37;28.30;57.20
3602;DHT22;1815;50.950;6.920;2022-10-16T12:27:06;28.10;57.30
3602;DHT22;1815;50.950;6.920;2022-10-16T12:29:38;27.80;57.50
3602;DHT22;1815;50.950;6.920;2022-10-16T12:34:47;27.60;58.10
3602;DHT22;1815;50.950;6.920;2022-10-16T12:37:20;27.40;58.10
3602;DHT22;1815;50.950;6.920;2022-10-16T12:39:47;27.20;58.00
3602;DHT22;1815;50.950;6.920;2022-10-16T12:42:34;27.00;58.20
3602;DHT22;1815;50.950;6.920;2022-10-16T12:45:00;26.80;58.40
3602;DHT22;1815;50.950;6.920;2022-10-16T12:49:59;26.50;58.50
3602;DHT22;1815;50.950;6.920;2022-10-16T12:52:35;26.20;58.40
3602;DHT22;1815;50.950;6.920;2022-10-16T12:55:01;26.00;58.80
3602;DHT22;1815;50.950;6.920;2022-10-16T13:00:04;25.70;59.30
3602;DHT22;1815;50.950;6.920;2022-10-16T13:21:38;25.00;61.90
3602;DHT22;1815;50.950;6.920;2022-10-16T13:29:14;24.90;61.90
3602;DHT22;1815;50.950;6.920;2022-10-16T13:31:40;24.80;61.90
3602;DHT22;1815;50.950;6.920;2022-10-16T13:34:15;24.80;62.50
3602;DHT22;1815;50.950;6.920;2022-10-16T13:36:47;24.80;63.00
3602;DHT22;1815;50.950;6.920;2022-10-16T13:39:30;24.70;64.20
3602;DHT22;1815;50.950;6.920;2022-10-16T13:42:05;24.60;63.90
3602;DHT22;1815;50.950;6.920;2022-10-16T13:44:40;24.70;64.90
3602;DHT22;1815;50.950;6.920;2022-10-16T13:47:17;24.80;64.90
3602;DHT22;1815;50.950;6.920;2022-10-16T13:49:43;24.80;64.50
3602;DHT22;1815;50.950;6.920;2022-10-16T13:52:18;24.90;64.40
3602;DHT22;1815;50.950;6.920;2022-10-16T13:54:44;24.80;64.00
3602;DHT22;1815;50.950;6.920;2022-10-16T13:57:15;24.70;63.90
3602;DHT22;1815;50.950;6.920;2022-10-16T13:59:40;24.60;63.90
3602;DHT22;1815;50.950;6.920;2022-10-16T14:02:40;24.50;64.00
3602;DHT22;1815;50.950;6.920;2022-10-16T14:05:08;24.50;64.50
3602;DHT22;1815;50.950;6.920;2022-10-16T14:07:36;24.50;64.60
3602;DHT22;1815;50.950;6.920;2022-10-16T14:10:18;24.40;65.00
3602;DHT22;1815;50.950;6.920;2022-10-16T14:12:54;24.40;65.00
3602;DHT22;1815;50.950;6.920;2022-10-16T14:15:20;24.20;65.60
3602;DHT22;1815;50.950;6.920;2022-10-16T14:17:50;24.20;65.40
3602;DHT22;1815;50.950;6.920;2022-10-16T14:20:16;24.20;65.80
3602;DHT22;1815;50.950;6.920;2022-10-16T14:22:42;24.10;65.90
3602;DHT22;1815;50.950;6.920;2022-10-16T14:30:51;23.90;66.80
3602;DHT22;1815;50.950;6.920;2022-10-16T14:38:29;23.70;67.70
3602;DHT22;1815;50.950;6.920;2022-10-16T14:40:57;23.70;68.00
3602;DHT22;1815;50.950;6.920;2022-10-16T14:43:44;23.60;68.50
3602;DHT22;1815;50.950;6.920;2022-10-16T14:46:17;23.50;69.10
3602;DHT22;1815;50.950;6.920;2022-10-16T14:48:48;23.40;69.30
3602;DHT22;1815;50.950;6.920;2022-10-16T14:51:16;23.40;69.30
3602;DHT22;1815;50.950;6.920;2022-10-16T14:53:42;23.40;69.70
3602;DHT22;1815;50.950;6.920;2022-10-16T14:56:17;23.40;70.30
3602;DHT22;1815;50.950;6.920;2022-10-16T14:58:44;23.40;71.00
3602;DHT22;1815;50.950;6.920;2022-10-16T15:01:10;23.40;71.10
3602;DHT22;1815;50.950;6.920;2022-10-16T15:03:37;23.40;71.20
3602;DHT22;1815;50.950;6.920;2022-10-16T15:06:04;23.40;71.50
3602;DHT22;1815;50.950;6.920;2022-10-16T15:08:35;23.40;71.90
3602;DHT22;1815;50.950;6.920;2022-10-16T15:11:00;23.40;72.30
3602;DHT22;1815;50.950;6.920;2022-10-16T15:13:26;23.30;72.50
3602;DHT22;1815;50.950;6.920;2022-10-16T15:15:53;23.30;73.00
3602;DHT22;1815;50.950;6.920;2022-10-16T15:18:19;23.30;74.10
3602;DHT22;1815;50.950;6.920;2022-10-16T15:20:48;23.20;73.90
3602;DHT22;1815;50.950;6.920;2022-10-16T15:23:16;23.20;74.20
3602;DHT22;1815;50.950;6.920;2022-10-16T15:25:47;23.20;74.70
3602;DHT22;1815;50.950;6.920;2022-10-16T15:28:14;23.10;75.10
3602;DHT22;1815;50.950;6.920;2022-10-16T15:30:41;23.10;75.30
3602;DHT22;1815;50.950;6.920;2022-10-16T15:33:13;23.00;75.50
3602;DHT22;1815;50.950;6.920;2022-10-16T15:35:39;23.00;76.30
3602;DHT22;1815;50.950;6.920;2022-10-16T15:38:05;23.00;76.40
3602;DHT22;1815;50.950;6.920;2022-10-16T15:40:31;22.90;76.60
3602;DHT22;1815;50.950;6.920;2022-10-16T15:42:57;22.90;77.70
3602;DHT22;1815;50.950;6.920;2022-10-16T15:45:23;22.80;77.70
3602;DHT22;1815;50.950;6.920;2022-10-16T15:47:48;22.80;78.20
3602;DHT22;1815;50.950;6.920;2022-10-16T15:50:15;22.80;78.80
3602;DHT22;1815;50.950;6.920;2022-10-16T15:52:41;22.70;80.00
3602;DHT22;1815;50.950;6.920;2022-10-16T15:55:08;22.70;79.90
3602;DHT22;1815;50.950;6.920;2022-10-16T15:57:35;22.60;80.40
3602;DHT22;1815;50.950;6.920;2022-10-16T16:00:06;22.60;80.90
3602;DHT22;1815;50.950;6.920;2022-10-16T16:02:37;22.50;82.20
3602;DHT22;1815;50.950;6.920;2022-10-16T16:05:03;22.50;82.90
3602;DHT22;1815;50.950;6.920;2022-10-16T16:07:33;22.40;83.30
3602;DHT22;1815;50.950;6.920;2022-10-16T16:09:59;22.30;84.60
3602;DHT22;1815;50.950;6.920;2022-10-16T16:12:25;22.30;84.90
3602;DHT22;1815;50.950;6.920;2022-10-16T16:14:51;22.20;85.70
3602;DHT22;1815;50.950;6.920;2022-10-16T16:17:17;22.20;86.60
3602;DHT22;1815;50.950;6.920;2022-10-16T16:19:43;22.10;87.00
3602;DHT22;1815;50.950;6.920;2022-10-16T16:22:09;22.10;87.60
3602;DHT22;1815;50.950;6.920;2022-10-16T16:24:34;22.10;89.20
3602;DHT22;1815;50.950;6.920;2022-10-16T16:27:00;22.00;90.00
3602;DHT22;1815;50.950;6.920;2022-10-16T16:29:26;22.00;90.10
3602;DHT22;1815;50.950;6.920;2022-10-16T16:31:52;22.00;90.30
3602;DHT22;1815;50.950;6.920;2022-10-16T16:34:26;21.90;90.40
3602;DHT22;1815;50.950;6.920;2022-10-16T16:36:53;21.90;90.90
3602;DHT22;1815;50.950;6.920;2022-10-16T16:39:19;21.90;90.90
3602;DHT22;1815;50.950;6.920;2022-10-16T16:41:45;21.90;91.00
3602;DHT22;1815;50.950;6.920;2022-10-16T16:44:11;21.80;91.80
3602;DHT22;1815;50.950;6.920;2022-10-16T16:46:38;21.80;92.00
3602;DHT22;1815;50.950;6.920;2022-10-16T16:49:05;21.70;92.20
3602;DHT22;1815;50.950;6.920;2022-10-16T16:51:32;21.70;92.30
3602;DHT22;1815;50.950;6.920;2022-10-16T16:53:59;21.60;92.70
3602;DHT22;1815;50.950;6.920;2022-10-16T16:56:26;21.60;92.70
3602;DHT22;1815;50.950;6.920;2022-10-16T16:58:54;21.60;93.00
3602;DHT22;1815;50.950;6.920;2022-10-16T17:01:22;21.50;93.10
3602;DHT22;1815;50.950;6.920;2022-10-16T17:03:50;21.50;93.50
3602;DHT22;1815;50.950;6.920;2022-10-16T17:06:18;21.50;94.30
3602;DHT22;1815;50.950;6.920;2022-10-16T17:08:45;21.40;94.10
3602;DHT22;1815;50.950;6.920;2022-10-16T17:11:19;21.40;94.30
3602;DHT22;1815;50.950;6.920;2022-10-16T17:13:45;21.40;95.20
3602;DHT22;1815;50.950;6.920;2022-10-16T17:16:10;21.40;95.10
3602;DHT22;1815;50.950;6.920;2022-10-16T17:18:37;21.40;95.20
3602;DHT22;1815;50.950;6.920;2022-10-16T17:21:05;21.40;95.60
3602;DHT22;1815;50.950;6.920;2022-10-16T17:23:32;21.30;96.30
3602;DHT22;1815;50.950;6.920;2022-10-16T17:26:09;21.30;96.20
3602;DHT22;1815;50.950;6.920;2022-10-16T17:28:35;21.30;96.80
3602;DHT22;1815;50.950;6.920;2022-10-16T17:31:13;21.20;96.90
3602;DHT22;1815;50.950;6.920;2022-10-16T17:33:39;21.20;98.20
3602;DHT22;1815;50.950;6.920;2022-10-16T17:36:06;21.20;98.00
3602;DHT22;1815;50.950;6.920;2022-10-16T17:38:32;21.20;98.10
3602;DHT22;1815;50.950;6.920;2022-10-16T17:40:58;21.10;98.70
3602;DHT22;1815;50.950;6.920;2022-10-16T17:43:24;21.10;99.10
3602;DHT22;1815;50.950;6.920;2022-10-16T17:45:49;21.10;99.40
3602;DHT22;1815;50.950;6.920;2022-10-16T17:48:15;21.20;99.80
3602;DHT22;1815;50.950;6.920;2022-10-16T17:50:42;21.10;99.90
3602;DHT22;1815;50.950;6.920;2022-10-16T17:53:08;21.10;99.90
3602;DHT22;1815;50.950;6.920;2022-10-16T17:55:38;21.00;99.90
3602;DHT22;1815;50.950;6.920;2022-10-16T17:58:04;21.00;99.90
3602;DHT22;1815;50.950;6.920;2022-10-16T18:00:31;21.00;99.90
3602;DHT22;1815;50.950;6.920;2022-10-16T18:02:57;21.00;99.90
3602;DHT22;1815;50.950;6.920;2022-10-16T18:05:23;21.00;99.90
3602;DHT22;1815;50.950;6.920;2022-10-16T18:07:48;20.90;99.90